createdAt,value
2018-05-02T00:00:45.300Z,1007.02
2018-05-02T00:01:45.283Z,1007.02
2018-05-02T00:02:45.273Z,1007.03
2018-05-02T00:03:45.245Z,1007.01
2018-05-02T00:04:45.226Z,1006.98
2018-05-02T00:05:45.208Z,1006.98
2018-05-02T00:06:45.189Z,1007.05
2018-05-02T00:07:45.167Z,1007.04
2018-05-02T00:08:45.148Z,1007.04
2018-05-02T00:09:45.138Z,1007.04
2018-05-02T00:10:45.112Z,1007.05
2018-05-02T00:11:45.093Z,1007.04
2018-05-02T00:12:45.077Z,1007.02
2018-05-02T00:13:45.065Z,1007.03
2018-05-02T00:14:45.053Z,1007.00
2018-05-02T00:15:45.018Z,1007.00
2018-05-02T00:16:45.011Z,1006.98
2018-05-02T00:17:44.985Z,1006.99
2018-05-02T00:18:44.965Z,1006.96
2018-05-02T00:19:44.942Z,1006.96
2018-05-02T00:20:44.928Z,1006.96
2018-05-02T00:21:44.908Z,1006.95
2018-05-02T00:22:44.891Z,1006.96
2018-05-02T00:23:44.880Z,1006.96
2018-05-02T00:24:44.851Z,1006.95
2018-05-02T00:25:44.830Z,1006.95
2018-05-02T00:26:44.805Z,1006.97
2018-05-02T00:27:44.789Z,1006.94
2018-05-02T00:28:44.774Z,1006.94
2018-05-02T00:29:44.750Z,1006.94
2018-05-02T00:30:44.732Z,1006.95
2018-05-02T00:31:44.710Z,1006.95
2018-05-02T00:32:44.692Z,1006.98
2018-05-02T00:33:44.674Z,1006.96
2018-05-02T00:34:44.654Z,1006.95
2018-05-02T00:35:44.639Z,1006.95
2018-05-02T00:36:44.619Z,1006.94
2018-05-02T00:37:44.596Z,1006.95
2018-05-02T00:38:44.580Z,1006.97
2018-05-02T00:39:44.557Z,1006.94
2018-05-02T00:40:44.538Z,1006.94
2018-05-02T00:41:44.519Z,1006.93
2018-05-02T00:42:44.499Z,1006.97
2018-05-02T00:43:44.488Z,1006.93
2018-05-02T00:44:44.461Z,1006.94
2018-05-02T00:45:44.443Z,1006.92
2018-05-02T00:46:44.423Z,1006.90
2018-05-02T00:47:44.408Z,1006.90
2018-05-02T00:48:44.386Z,1006.89
2018-05-02T00:49:44.368Z,1006.88
2018-05-02T00:50:44.349Z,1006.88
2018-05-02T00:51:44.325Z,1006.88
2018-05-02T00:52:44.304Z,1006.88
2018-05-02T00:53:44.288Z,1006.90
2018-05-02T00:54:44.278Z,1006.89
2018-05-02T00:55:44.248Z,1006.88
2018-05-02T00:56:44.229Z,1006.87
2018-05-02T00:57:44.209Z,1006.87
2018-05-02T00:58:44.194Z,1006.90
2018-05-02T00:59:44.189Z,1006.91
2018-05-02T01:00:44.159Z,1006.88
2018-05-02T01:01:44.138Z,1006.93
2018-05-02T01:02:44.118Z,1006.90
2018-05-02T01:03:44.094Z,1006.91
2018-05-02T01:04:44.088Z,1006.94
2018-05-02T01:05:44.059Z,1006.98
2018-05-02T01:06:44.042Z,1007.00
2018-05-02T01:07:44.016Z,1006.98
2018-05-02T01:08:44.000Z,1006.95
2018-05-02T01:09:43.979Z,1006.98
2018-05-02T01:10:43.964Z,1007.00
2018-05-02T01:11:43.948Z,1007.01
2018-05-02T01:12:43.919Z,1007.00
2018-05-02T01:13:43.909Z,1006.99
2018-05-02T01:14:43.898Z,1007.01
2018-05-02T01:15:43.862Z,1007.04
2018-05-02T01:16:43.849Z,1007.00
2018-05-02T01:17:43.828Z,1007.01
2018-05-02T01:18:43.809Z,1006.98
2018-05-02T01:19:43.788Z,1007.00
2018-05-02T01:20:43.769Z,1006.98
2018-05-02T01:21:43.749Z,1007.00
2018-05-02T01:22:43.729Z,1007.02
2018-05-02T01:23:43.716Z,1006.98
2018-05-02T01:24:43.691Z,1007.00
2018-05-02T01:25:43.670Z,1007.01
2018-05-02T01:26:43.648Z,1007.01
2018-05-02T01:27:43.639Z,1007.06
2018-05-02T01:28:43.611Z,1007.05
2018-05-02T01:29:43.600Z,1007.02
2018-05-02T01:30:43.579Z,1007.06
2018-05-02T01:31:43.557Z,1007.07
2018-05-02T01:32:43.541Z,1007.04
2018-05-02T01:33:43.518Z,1007.04
2018-05-02T01:34:43.514Z,1007.09
2018-05-02T01:35:43.479Z,1007.04
2018-05-02T01:36:43.456Z,1007.05
2018-05-02T01:37:43.437Z,1007.06
2018-05-02T01:38:43.422Z,1007.08
2018-05-02T01:39:43.404Z,1007.07
2018-05-02T01:40:43.380Z,1007.07
2018-05-02T01:41:43.362Z,1007.10
2018-05-02T01:42:43.336Z,1007.12
2018-05-02T01:43:43.321Z,1007.09
2018-05-02T01:44:43.296Z,1007.11
2018-05-02T01:45:43.279Z,1007.16
2018-05-02T01:46:43.257Z,1007.15
2018-05-02T01:47:43.239Z,1007.13
2018-05-02T01:48:43.219Z,1007.10
2018-05-02T01:49:43.199Z,1007.12
2018-05-02T01:50:43.185Z,1007.15
2018-05-02T01:51:43.162Z,1007.12
2018-05-02T01:52:43.143Z,1007.14
2018-05-02T01:53:43.124Z,1007.15
2018-05-02T01:54:43.103Z,1007.10
2018-05-02T01:55:43.085Z,1007.10
2018-05-02T01:56:43.069Z,1007.11
2018-05-02T01:57:43.045Z,1007.10
2018-05-02T01:58:43.021Z,1007.09
2018-05-02T01:59:43.009Z,1007.10
2018-05-02T02:00:42.982Z,1007.08
2018-05-02T02:01:42.968Z,1007.12
2018-05-02T02:02:42.945Z,1007.12
2018-05-02T02:03:42.927Z,1007.06
2018-05-02T02:04:42.903Z,1007.11
2018-05-02T02:05:42.886Z,1007.08
2018-05-02T02:06:42.863Z,1007.06
2018-05-02T02:07:42.846Z,1007.07
2018-05-02T02:08:42.824Z,1007.05
2018-05-02T02:09:42.807Z,1007.04
2018-05-02T02:10:42.785Z,1007.05
2018-05-02T02:11:42.768Z,1007.03
2018-05-02T02:12:42.743Z,1007.03
2018-05-02T02:13:42.729Z,1007.02
2018-05-02T02:14:42.706Z,1007.00
2018-05-02T02:15:42.693Z,1006.98
2018-05-02T02:16:42.667Z,1007.02
2018-05-02T02:17:42.651Z,1007.00
2018-05-02T02:18:42.626Z,1007.00
2018-05-02T02:19:42.668Z,1007.01
2018-05-02T02:20:42.590Z,1007.03
2018-05-02T02:21:42.572Z,1006.99
2018-05-02T02:22:42.550Z,1006.96
2018-05-02T02:23:42.531Z,1006.94
2018-05-02T02:24:42.510Z,1006.95
2018-05-02T02:25:42.491Z,1006.94
2018-05-02T02:26:42.469Z,1006.99
2018-05-02T02:27:42.451Z,1006.93
2018-05-02T02:28:42.431Z,1006.94
2018-05-02T02:29:42.413Z,1006.92
2018-05-02T02:30:42.392Z,1006.95
2018-05-02T02:31:42.371Z,1006.94
2018-05-02T02:32:42.352Z,1006.95
2018-05-02T02:33:42.328Z,1006.91
2018-05-02T02:34:42.312Z,1006.90
2018-05-02T02:35:42.296Z,1006.94
2018-05-02T02:36:42.272Z,1006.93
2018-05-02T02:37:42.260Z,1006.91
2018-05-02T02:38:42.245Z,1006.89
2018-05-02T02:39:42.217Z,1006.89
2018-05-02T02:40:42.201Z,1006.89
2018-05-02T02:41:42.173Z,1006.87
2018-05-02T02:42:42.158Z,1006.86
2018-05-02T02:43:42.140Z,1006.86
2018-05-02T02:44:42.117Z,1006.85
2018-05-02T02:45:42.101Z,1006.88
2018-05-02T02:46:42.076Z,1006.85
2018-05-02T02:47:42.064Z,1006.86
2018-05-02T02:48:42.040Z,1006.83
2018-05-02T02:49:42.015Z,1006.81
2018-05-02T02:50:41.999Z,1006.84
2018-05-02T02:51:41.979Z,1006.82
2018-05-02T02:52:41.961Z,1006.82
2018-05-02T02:53:41.943Z,1006.79
2018-05-02T02:54:41.920Z,1006.84
2018-05-02T02:55:41.900Z,1006.82
2018-05-02T02:56:41.881Z,1006.77
2018-05-02T02:57:41.872Z,1006.79
2018-05-02T02:58:41.835Z,1006.77
2018-05-02T02:59:41.820Z,1006.76
2018-05-02T03:00:41.799Z,1006.79
2018-05-02T03:01:41.781Z,1006.77
2018-05-02T03:02:41.762Z,1006.73
2018-05-02T03:03:41.740Z,1006.72
2018-05-02T03:04:41.721Z,1006.71
2018-05-02T03:05:41.704Z,1006.70
2018-05-02T03:06:41.681Z,1006.72
2018-05-02T03:07:41.659Z,1006.74
2018-05-02T03:08:41.640Z,1006.70
2018-05-02T03:09:41.619Z,1006.69
2018-05-02T03:10:41.601Z,1006.71
2018-05-02T03:11:41.587Z,1006.71
2018-05-02T03:12:41.561Z,1006.72
2018-05-02T03:13:41.540Z,1006.65
2018-05-02T03:14:41.521Z,1006.66
2018-05-02T03:15:41.501Z,1006.64
2018-05-02T03:16:41.480Z,1006.64
2018-05-02T03:17:41.467Z,1006.59
2018-05-02T03:18:41.439Z,1006.62
2018-05-02T03:19:41.419Z,1006.62
2018-05-02T03:20:41.405Z,1006.61
2018-05-02T03:21:41.379Z,1006.59
2018-05-02T03:22:41.364Z,1006.59
2018-05-02T03:23:41.350Z,1006.60
2018-05-02T03:24:41.320Z,1006.57
2018-05-02T03:25:41.301Z,1006.59
2018-05-02T03:26:41.288Z,1006.60
2018-05-02T03:27:41.262Z,1006.58
2018-05-02T03:28:41.241Z,1006.58
2018-05-02T03:29:41.230Z,1006.58
2018-05-02T03:30:41.201Z,1006.60
2018-05-02T03:31:41.190Z,1006.58
2018-05-02T03:32:41.169Z,1006.57
2018-05-02T03:33:41.141Z,1006.52
2018-05-02T03:34:41.127Z,1006.53
2018-05-02T03:35:41.110Z,1006.59
2018-05-02T03:36:41.090Z,1006.53
2018-05-02T03:37:41.069Z,1006.56
2018-05-02T03:38:41.044Z,1006.52
2018-05-02T03:39:41.022Z,1006.52
2018-05-02T03:40:41.012Z,1006.55
2018-05-02T03:41:40.991Z,1006.55
2018-05-02T03:42:40.969Z,1006.57
2018-05-02T03:43:40.943Z,1006.58
2018-05-02T03:44:40.921Z,1006.55
2018-05-02T03:45:40.912Z,1006.56
2018-05-02T03:46:40.890Z,1006.52
2018-05-02T03:47:40.869Z,1006.53
2018-05-02T03:48:40.855Z,1006.55
2018-05-02T03:49:40.824Z,1006.53
2018-05-02T03:50:40.810Z,1006.55
2018-05-02T03:51:40.781Z,1006.57
2018-05-02T03:52:40.760Z,1006.52
2018-05-02T03:53:40.741Z,1006.49
2018-05-02T03:54:40.731Z,1006.48
2018-05-02T03:55:40.710Z,1006.48
2018-05-02T03:56:40.693Z,1006.48
2018-05-02T03:57:40.665Z,1006.46
2018-05-02T03:58:40.651Z,1006.52
2018-05-02T03:59:40.696Z,1006.53
2018-05-02T04:00:40.604Z,1006.52
2018-05-02T04:01:40.591Z,1006.53
2018-05-02T04:02:40.572Z,1006.54
2018-05-02T04:03:40.554Z,1006.56
2018-05-02T04:04:40.519Z,1006.57
2018-05-02T04:05:40.550Z,1006.56
2018-05-02T04:06:40.482Z,1006.53
2018-05-02T04:07:40.464Z,1006.54
2018-05-02T04:08:40.507Z,1006.52
2018-05-02T04:09:40.420Z,1006.58
2018-05-02T04:10:40.399Z,1006.59
2018-05-02T04:11:40.386Z,1006.60
2018-05-02T04:12:40.359Z,1006.57
2018-05-02T04:13:40.341Z,1006.62
2018-05-02T04:14:40.320Z,1006.61
2018-05-02T04:15:40.300Z,1006.59
2018-05-02T04:16:40.279Z,1006.62
2018-05-02T04:17:40.259Z,1006.58
2018-05-02T04:18:40.259Z,1006.59
2018-05-02T04:19:40.219Z,1006.60
2018-05-02T04:20:40.205Z,1006.63
2018-05-02T04:21:40.182Z,1006.66
2018-05-02T04:22:40.159Z,1006.64
2018-05-02T04:23:40.190Z,1006.73
2018-05-02T04:24:40.129Z,1006.74
2018-05-02T04:25:40.098Z,1006.77
2018-05-02T04:26:40.081Z,1006.76
2018-05-02T04:27:40.065Z,1006.77
2018-05-02T04:28:40.040Z,1006.77
2018-05-02T04:29:40.020Z,1006.80
2018-05-02T04:30:40.007Z,1006.79
2018-05-02T04:31:39.979Z,1006.80
2018-05-02T04:32:39.956Z,1006.82
2018-05-02T04:33:39.940Z,1006.78
2018-05-02T04:34:39.920Z,1006.87
2018-05-02T04:35:39.904Z,1006.81
2018-05-02T04:36:39.881Z,1006.80
2018-05-02T04:37:39.860Z,1006.82
2018-05-02T04:38:39.841Z,1006.82
2018-05-02T04:39:39.819Z,1006.83
2018-05-02T04:40:39.804Z,1006.89
2018-05-02T04:41:39.778Z,1006.95
2018-05-02T04:42:39.758Z,1006.94
2018-05-02T04:43:39.740Z,1006.97
2018-05-02T04:44:39.718Z,1006.98
2018-05-02T04:45:39.698Z,1006.98
2018-05-02T04:46:39.681Z,1006.99
2018-05-02T04:47:39.670Z,1007.02
2018-05-02T04:48:39.638Z,1007.03
2018-05-02T04:49:39.615Z,1007.04
2018-05-02T04:50:39.596Z,1007.07
2018-05-02T04:51:39.574Z,1007.09
2018-05-02T04:52:39.645Z,1007.15
2018-05-02T04:53:39.536Z,1007.13
2018-05-02T04:54:39.521Z,1007.14
2018-05-02T04:55:39.494Z,1007.12
2018-05-02T04:56:39.484Z,1007.16
2018-05-02T04:57:39.459Z,1007.15
2018-05-02T04:58:39.439Z,1007.22
2018-05-02T04:59:39.420Z,1007.21
2018-05-02T05:00:39.398Z,1007.21
2018-05-02T05:01:39.380Z,1007.25
2018-05-02T05:02:39.356Z,1007.28
2018-05-02T05:03:39.413Z,1007.26
2018-05-02T05:04:39.329Z,1007.23
2018-05-02T05:05:39.347Z,1007.23
2018-05-02T05:06:39.283Z,1007.25
2018-05-02T05:07:39.381Z,1007.21
2018-05-02T05:08:39.240Z,1007.23
2018-05-02T05:09:39.220Z,1007.21
2018-05-02T05:10:39.197Z,1007.20
2018-05-02T05:11:39.182Z,1007.21
2018-05-02T05:12:39.160Z,1007.17
2018-05-02T05:13:39.139Z,1007.19
2018-05-02T05:14:39.119Z,1007.17
2018-05-02T05:15:39.149Z,1007.19
2018-05-02T05:16:39.080Z,1007.20
2018-05-02T05:17:39.105Z,1007.24
2018-05-02T05:18:39.038Z,1007.23
2018-05-02T05:19:39.069Z,1007.25
2018-05-02T05:20:38.997Z,1007.26
2018-05-02T05:21:39.029Z,1007.23
2018-05-02T05:22:38.959Z,1007.23
2018-05-02T05:23:38.940Z,1007.25
2018-05-02T05:24:38.925Z,1007.28
2018-05-02T05:25:38.907Z,1007.31
2018-05-02T05:26:38.883Z,1007.31
2018-05-02T05:27:38.912Z,1007.27
2018-05-02T05:28:38.848Z,1007.29
2018-05-02T05:29:38.872Z,1007.26
2018-05-02T05:30:38.801Z,1007.26
2018-05-02T05:31:38.792Z,1007.28
2018-05-02T05:32:38.765Z,1007.25
2018-05-02T05:33:38.747Z,1007.23
2018-05-02T05:34:38.742Z,1007.24
2018-05-02T05:35:38.755Z,1007.28
2018-05-02T05:36:38.684Z,1007.27
2018-05-02T05:37:38.669Z,1007.29
2018-05-02T05:38:38.640Z,1007.29
2018-05-02T05:39:38.673Z,1007.28
2018-05-02T05:40:38.595Z,1007.28
2018-05-02T05:41:38.582Z,1007.32
2018-05-02T05:42:38.560Z,1007.32
2018-05-02T05:43:38.576Z,1007.39
2018-05-02T05:44:38.519Z,1007.34
2018-05-02T05:45:38.508Z,1007.38
2018-05-02T05:46:38.478Z,1007.36
2018-05-02T05:47:38.460Z,1007.32
2018-05-02T05:48:38.441Z,1007.33
2018-05-02T05:49:38.430Z,1007.33
2018-05-02T05:50:38.399Z,1007.31
2018-05-02T05:51:38.381Z,1007.31
2018-05-02T05:52:38.360Z,1007.33
2018-05-02T05:53:38.341Z,1007.36
2018-05-02T05:54:38.322Z,1007.33
2018-05-02T05:55:38.307Z,1007.34
2018-05-02T05:56:38.310Z,1007.31
2018-05-02T05:57:38.264Z,1007.35
2018-05-02T05:58:38.241Z,1007.36
2018-05-02T05:59:38.227Z,1007.32
2018-05-02T06:00:38.203Z,1007.36
2018-05-02T06:01:38.190Z,1007.35
2018-05-02T06:02:38.163Z,1007.40
2018-05-02T06:03:38.147Z,1007.41
2018-05-02T06:04:38.130Z,1007.42
2018-05-02T06:05:38.111Z,1007.42
2018-05-02T06:06:38.160Z,1007.42
2018-05-02T06:07:38.070Z,1007.39
2018-05-02T06:08:38.048Z,1007.43
2018-05-02T06:09:38.029Z,1007.39
2018-05-02T06:10:38.008Z,1007.43
2018-05-02T06:11:37.990Z,1007.40
2018-05-02T06:12:38.055Z,1007.39
2018-05-02T06:13:37.958Z,1007.41
2018-05-02T06:14:37.935Z,1007.41
2018-05-02T06:15:37.920Z,1007.38
2018-05-02T06:16:37.896Z,1007.36
2018-05-02T06:17:37.879Z,1007.36
2018-05-02T06:18:37.856Z,1007.42
2018-05-02T06:19:37.848Z,1007.35
2018-05-02T06:20:37.818Z,1007.36
2018-05-02T06:21:37.800Z,1007.40
2018-05-02T06:22:37.781Z,1007.40
2018-05-02T06:23:37.765Z,1007.43
2018-05-02T06:24:37.746Z,1007.45
2018-05-02T06:25:37.722Z,1007.42
2018-05-02T06:26:37.715Z,1007.43
2018-05-02T06:27:37.690Z,1007.38
2018-05-02T06:28:37.670Z,1007.40
2018-05-02T06:29:37.649Z,1007.43
2018-05-02T06:30:37.631Z,1007.39
2018-05-02T06:31:37.654Z,1007.44
2018-05-02T06:32:37.595Z,1007.43
2018-05-02T06:33:37.582Z,1007.43
2018-05-02T06:34:37.562Z,1007.45
2018-05-02T06:35:37.592Z,1007.43
2018-05-02T06:36:37.520Z,1007.42
2018-05-02T06:37:37.685Z,1007.40
2018-05-02T06:38:37.478Z,1007.41
2018-05-02T06:39:37.469Z,1007.38
2018-05-02T06:40:37.441Z,1007.39
2018-05-02T06:41:37.430Z,1007.38
2018-05-02T06:42:37.412Z,1007.38
2018-05-02T06:43:37.448Z,1007.39
2018-05-02T06:44:37.372Z,1007.35
2018-05-02T06:45:37.454Z,1007.38
2018-05-02T06:46:37.332Z,1007.37
2018-05-02T06:47:37.416Z,1007.37
2018-05-02T06:48:37.300Z,1007.43
2018-05-02T06:49:37.381Z,1007.36
2018-05-02T06:50:37.273Z,1007.36
2018-05-02T06:51:37.281Z,1007.35
2018-05-02T06:52:37.233Z,1007.33
2018-05-02T06:53:37.309Z,1007.34
2018-05-02T06:54:37.216Z,1007.32
2018-05-02T06:55:37.171Z,1007.31
2018-05-02T06:56:37.148Z,1007.25
2018-05-02T06:57:37.192Z,1007.30
2018-05-02T06:58:37.114Z,1007.29
2018-05-02T06:59:37.105Z,1007.27
2018-05-02T07:00:37.081Z,1007.25
2018-05-02T07:01:37.064Z,1007.25
2018-05-02T07:02:37.052Z,1007.22
2018-05-02T07:03:37.026Z,1007.28
2018-05-02T07:04:37.006Z,1007.25
2018-05-02T07:05:36.993Z,1007.26
2018-05-02T07:06:36.980Z,1007.26
2018-05-02T07:07:36.957Z,1007.25
2018-05-02T07:08:36.942Z,1007.25
2018-05-02T07:09:36.933Z,1007.25
2018-05-02T07:10:36.911Z,1007.29
2018-05-02T07:11:36.888Z,1007.26
2018-05-02T07:12:36.875Z,1007.32
2018-05-02T07:13:37.032Z,1007.28
2018-05-02T07:14:36.836Z,1007.25
2018-05-02T07:15:36.820Z,1007.30
2018-05-02T07:16:36.807Z,1007.29
2018-05-02T07:17:36.786Z,1007.29
2018-05-02T07:18:36.767Z,1007.32
2018-05-02T07:19:36.752Z,1007.32
2018-05-02T07:20:36.736Z,1007.31
2018-05-02T07:21:36.719Z,1007.23
2018-05-02T07:22:36.701Z,1007.25
2018-05-02T07:23:36.683Z,1007.26
2018-05-02T07:24:36.673Z,1007.24
2018-05-02T07:25:36.656Z,1007.24
2018-05-02T07:26:36.635Z,1007.24
2018-05-02T07:27:36.621Z,1007.31
2018-05-02T07:28:36.612Z,1007.40
2018-05-02T07:29:36.602Z,1007.54
2018-05-02T07:30:36.585Z,1007.63
2018-05-02T07:31:36.567Z,1007.79
2018-05-02T07:32:36.640Z,1007.89
2018-05-02T07:33:36.541Z,1007.93
2018-05-02T07:34:36.529Z,1008.01
2018-05-02T07:35:36.521Z,1008.01
2018-05-02T07:36:36.505Z,1008.05
2018-05-02T07:37:36.507Z,1008.05
2018-05-02T07:38:36.494Z,1008.15
2018-05-02T07:39:36.484Z,1008.14
2018-05-02T07:40:36.464Z,1008.12
2018-05-02T07:41:36.471Z,1008.16
2018-05-02T07:42:36.449Z,1008.14
2018-05-02T07:43:36.443Z,1008.20
2018-05-02T07:44:36.431Z,1008.21
2018-05-02T07:45:36.421Z,1008.22
2018-05-02T07:46:36.413Z,1008.23
2018-05-02T07:47:36.413Z,1008.20
2018-05-02T07:48:36.485Z,1008.24
2018-05-02T07:49:36.392Z,1008.26
2018-05-02T07:50:36.461Z,1008.25
2018-05-02T07:51:36.385Z,1008.27
2018-05-02T07:52:36.381Z,1008.33
2018-05-02T07:53:36.381Z,1008.41
2018-05-02T07:54:36.369Z,1008.41
2018-05-02T07:55:36.365Z,1008.36
2018-05-02T07:56:36.381Z,1008.35
2018-05-02T07:57:36.354Z,1008.38
2018-05-02T07:58:36.353Z,1008.31
2018-05-02T07:59:36.349Z,1008.34
2018-05-02T08:00:36.352Z,1008.30
2018-05-02T08:01:36.347Z,1008.36
2018-05-02T08:02:36.333Z,1008.32
2018-05-02T08:03:36.339Z,1008.33
2018-05-02T08:04:36.376Z,1008.35
2018-05-02T08:05:36.321Z,1008.38
2018-05-02T08:06:36.329Z,1008.41
2018-05-02T08:07:36.323Z,1008.37
2018-05-02T08:08:36.322Z,1008.41
2018-05-02T08:09:36.328Z,1008.40
2018-05-02T08:10:36.313Z,1008.42
2018-05-02T08:11:36.314Z,1008.35
2018-05-02T08:12:36.307Z,1008.37
2018-05-02T08:13:36.314Z,1008.41
2018-05-02T08:14:36.311Z,1008.39
2018-05-02T08:15:36.311Z,1008.39
2018-05-02T08:16:36.305Z,1008.37
2018-05-02T08:17:36.307Z,1008.36
2018-05-02T08:18:36.306Z,1008.31
2018-05-02T08:19:36.302Z,1008.31
2018-05-02T08:20:36.299Z,1008.40
2018-05-02T08:21:36.302Z,1008.38
2018-05-02T08:22:36.302Z,1008.36
2018-05-02T08:23:36.352Z,1007.44
2018-05-02T08:24:36.308Z,1008.32
2018-05-02T08:25:36.307Z,1008.36
2018-05-02T08:26:36.318Z,1008.33
2018-05-02T08:27:36.505Z,1008.33
2018-05-02T08:28:36.306Z,1007.46
2018-05-02T08:29:36.411Z,1008.30
2018-05-02T08:30:36.308Z,1008.39
2018-05-02T08:31:36.398Z,1008.32
2018-05-02T08:32:36.293Z,1008.38
2018-05-02T08:33:36.348Z,1008.38
2018-05-02T08:34:36.344Z,1008.44
2018-05-02T08:35:36.296Z,1008.37
2018-05-02T08:36:36.297Z,1007.78
2018-05-02T08:37:36.283Z,1008.43
2018-05-02T08:38:36.285Z,1008.37
2018-05-02T08:39:36.314Z,1007.50
2018-05-02T08:40:36.281Z,1008.35
2018-05-02T08:41:36.284Z,1008.19
2018-05-02T08:42:36.290Z,1008.25
2018-05-02T08:43:36.290Z,1008.28
2018-05-02T08:44:36.269Z,1008.18
2018-05-02T08:45:36.273Z,1007.78
2018-05-02T08:46:36.273Z,1008.28
2018-05-02T08:47:36.270Z,1008.19
2018-05-02T08:48:36.273Z,1008.19
2018-05-02T08:49:36.273Z,1007.31
2018-05-02T08:50:36.273Z,1008.22
2018-05-02T08:51:36.264Z,1008.18
2018-05-02T08:52:36.328Z,1008.22
2018-05-02T08:53:36.267Z,1007.28
2018-05-02T08:54:36.265Z,1007.39
2018-05-02T08:55:36.252Z,1007.35
2018-05-02T08:56:36.358Z,1007.39
2018-05-02T08:57:36.241Z,1007.43
2018-05-02T08:58:36.356Z,1007.63
2018-05-02T08:59:36.235Z,1008.10
2018-05-02T09:00:36.285Z,1007.39
2018-05-02T09:01:36.224Z,1007.33
2018-05-02T09:02:36.221Z,1007.27
2018-05-02T09:03:36.208Z,1007.24
2018-05-02T09:04:36.206Z,1007.30
2018-05-02T09:05:36.196Z,1007.38
2018-05-02T09:06:36.245Z,1007.47
2018-05-02T09:07:36.178Z,1007.16
2018-05-02T09:08:36.171Z,1007.22
2018-05-02T09:09:36.175Z,1007.66
2018-05-02T09:10:36.153Z,1007.12
2018-05-02T09:11:36.142Z,1007.02
2018-05-02T09:12:36.132Z,1006.97
2018-05-02T09:13:36.127Z,1006.96
2018-05-02T09:14:36.114Z,1006.86
2018-05-02T09:15:36.127Z,1006.88
2018-05-02T09:16:36.102Z,1006.86
2018-05-02T09:17:36.084Z,1006.84
2018-05-02T09:18:36.079Z,1007.16
2018-05-02T09:19:36.065Z,1007.17
2018-05-02T09:20:36.057Z,1007.06
2018-05-02T09:21:36.050Z,1007.14
2018-05-02T09:22:36.041Z,1007.18
2018-05-02T09:23:36.032Z,1007.17
2018-05-02T09:24:36.020Z,1007.02
2018-05-02T09:25:36.011Z,1007.01
2018-05-02T09:26:36.002Z,1006.96
2018-05-02T09:27:35.991Z,1006.97
2018-05-02T09:28:35.989Z,1006.96
2018-05-02T09:29:35.982Z,1007.00
2018-05-02T09:30:35.961Z,1006.91
2018-05-02T09:31:35.946Z,1006.92
2018-05-02T09:32:35.936Z,1006.89
2018-05-02T09:33:35.929Z,1006.82
2018-05-02T09:34:35.927Z,1006.88
2018-05-02T09:35:35.938Z,1006.72
2018-05-02T09:36:35.898Z,1006.87
2018-05-02T09:37:35.898Z,1006.84
2018-05-02T09:38:35.880Z,1006.75
2018-05-02T09:39:35.871Z,1006.74
2018-05-02T09:40:35.861Z,1006.83
2018-05-02T09:41:35.858Z,1006.83
2018-05-02T09:42:35.838Z,1006.77
2018-05-02T09:43:35.832Z,1006.80
2018-05-02T09:44:35.821Z,1006.78
2018-05-02T09:45:35.809Z,1006.77
2018-05-02T09:46:35.805Z,1006.67
2018-05-02T09:47:35.794Z,1006.65
2018-05-02T09:48:35.774Z,1006.73
2018-05-02T09:49:35.763Z,1006.81
2018-05-02T09:50:35.764Z,1006.75
2018-05-02T09:51:35.757Z,1006.65
2018-05-02T09:52:35.735Z,1006.66
2018-05-02T09:53:35.723Z,1006.70
2018-05-02T09:54:35.720Z,1006.65
2018-05-02T09:55:35.707Z,1006.62
2018-05-02T09:56:35.690Z,1006.63
2018-05-02T09:57:35.680Z,1006.62
2018-05-02T09:58:35.670Z,1006.63
2018-05-02T09:59:35.662Z,1006.68
2018-05-02T10:00:35.651Z,1006.70
2018-05-02T10:01:35.643Z,1006.60
2018-05-02T10:02:35.634Z,1006.64
2018-05-02T10:03:35.620Z,1006.69
2018-05-02T10:04:35.729Z,1006.54
2018-05-02T10:05:35.607Z,1006.68
2018-05-02T10:06:35.600Z,1006.70
2018-05-02T10:07:35.579Z,1006.63
2018-05-02T10:08:35.572Z,1006.55
2018-05-02T10:09:35.562Z,1006.58
2018-05-02T10:10:35.545Z,1006.64
2018-05-02T10:11:35.537Z,1006.60
2018-05-02T10:12:35.561Z,1006.53
2018-05-02T10:13:35.521Z,1006.55
2018-05-02T10:14:35.510Z,1006.61
2018-05-02T10:15:35.494Z,1006.57
2018-05-02T10:16:35.481Z,1006.61
2018-05-02T10:17:35.472Z,1006.59
2018-05-02T10:18:35.512Z,1006.61
2018-05-02T10:19:35.462Z,1006.54
2018-05-02T10:20:35.439Z,1006.48
2018-05-02T10:21:35.431Z,1006.54
2018-05-02T10:22:35.420Z,1006.50
2018-05-02T10:23:35.411Z,1006.50
2018-05-02T10:24:35.399Z,1006.45
2018-05-02T10:25:35.385Z,1006.46
2018-05-02T10:26:35.380Z,1006.39
2018-05-02T10:27:35.366Z,1006.30
2018-05-02T10:28:35.358Z,1006.31
2018-05-02T10:29:35.357Z,1006.30
2018-05-02T10:30:35.340Z,1006.39
2018-05-02T10:31:35.333Z,1006.35
2018-05-02T10:32:35.331Z,1006.40
2018-05-02T10:33:35.308Z,1006.44
2018-05-02T10:34:35.302Z,1006.43
2018-05-02T10:35:35.291Z,1006.38
2018-05-02T10:36:35.274Z,1006.37
2018-05-02T10:37:35.265Z,1006.40
2018-05-02T10:38:35.262Z,1006.37
2018-05-02T10:39:35.247Z,1006.37
2018-05-02T10:40:35.231Z,1006.37
2018-05-02T10:41:35.225Z,1006.42
2018-05-02T10:42:35.213Z,1006.43
2018-05-02T10:43:35.201Z,1006.40
2018-05-02T10:44:35.191Z,1006.40
2018-05-02T10:45:35.182Z,1006.40
2018-05-02T10:46:35.223Z,1006.39
2018-05-02T10:47:35.160Z,1006.29
2018-05-02T10:48:35.151Z,1006.33
2018-05-02T10:49:35.147Z,1006.41
2018-05-02T10:50:35.189Z,1006.39
2018-05-02T10:51:35.123Z,1006.41
2018-05-02T10:52:35.110Z,1006.37
2018-05-02T10:53:35.103Z,1006.41
2018-05-02T10:54:35.090Z,1006.39
2018-05-02T10:55:35.081Z,1006.41
2018-05-02T10:56:35.070Z,1006.46
2018-05-02T10:57:35.065Z,1006.36
2018-05-02T10:58:35.051Z,1006.41
2018-05-02T10:59:35.044Z,1006.37
2018-05-02T11:00:35.031Z,1006.36
2018-05-02T11:01:35.041Z,1006.36
2018-05-02T11:02:35.011Z,1006.32
2018-05-02T11:03:35.000Z,1006.30
2018-05-02T11:04:34.991Z,1006.33
2018-05-02T11:05:34.983Z,1006.35
2018-05-02T11:06:34.981Z,1006.28
2018-05-02T11:07:34.963Z,1006.29
2018-05-02T11:08:34.955Z,1006.23
2018-05-02T11:09:34.940Z,1006.23
2018-05-02T11:10:34.931Z,1006.20
2018-05-02T11:11:34.926Z,1006.27
2018-05-02T11:12:34.911Z,1006.27
2018-05-02T11:13:34.903Z,1006.19
2018-05-02T11:14:34.891Z,1006.17
2018-05-02T11:15:34.884Z,1006.20
2018-05-02T11:16:34.872Z,1006.21
2018-05-02T11:17:34.862Z,1006.20
2018-05-02T11:18:34.853Z,1006.20
2018-05-02T11:19:34.839Z,1006.17
2018-05-02T11:20:34.828Z,1006.15
2018-05-02T11:21:34.820Z,1006.16
2018-05-02T11:22:34.809Z,1006.16
2018-05-02T11:23:34.801Z,1006.16
2018-05-02T11:24:34.795Z,1006.13
2018-05-02T11:25:34.792Z,1006.10
2018-05-02T11:26:34.776Z,1006.11
2018-05-02T11:27:34.761Z,1006.10
2018-05-02T11:28:34.747Z,1006.05
2018-05-02T11:29:34.749Z,1005.97
2018-05-02T11:30:34.725Z,1005.97
2018-05-02T11:31:34.725Z,1006.00
2018-05-02T11:32:34.708Z,1006.03
2018-05-02T11:33:34.863Z,1006.02
2018-05-02T11:34:34.693Z,1006.03
2018-05-02T11:35:34.777Z,1006.03
2018-05-02T11:36:34.671Z,1006.05
2018-05-02T11:37:34.661Z,1006.01
2018-05-02T11:38:34.648Z,1006.02
2018-05-02T11:39:34.642Z,1006.05
2018-05-02T11:40:34.705Z,1006.07
2018-05-02T11:41:34.621Z,1006.01
2018-05-02T11:42:34.607Z,1005.94
2018-05-02T11:43:34.597Z,1006.00
2018-05-02T11:44:34.592Z,1005.99
2018-05-02T11:45:34.589Z,1006.07
2018-05-02T11:46:34.581Z,1005.98
2018-05-02T11:47:34.563Z,1005.92
2018-05-02T11:48:34.552Z,1005.91
2018-05-02T11:49:34.537Z,1005.88
2018-05-02T11:50:34.531Z,1005.84
2018-05-02T11:51:34.522Z,1005.87
2018-05-02T11:52:34.510Z,1005.82
2018-05-02T11:53:34.501Z,1005.81
2018-05-02T11:54:34.491Z,1005.82
2018-05-02T11:55:34.482Z,1005.79
2018-05-02T11:56:34.483Z,1005.76
2018-05-02T11:57:34.467Z,1005.87
2018-05-02T11:58:34.461Z,1005.81
2018-05-02T11:59:34.451Z,1005.80
2018-05-02T12:00:34.435Z,1005.78
2018-05-02T12:01:34.430Z,1005.69
2018-05-02T12:02:34.465Z,1005.69
2018-05-02T12:03:34.491Z,1005.80
2018-05-02T12:04:34.404Z,1005.83
2018-05-02T12:05:34.391Z,1005.82